Dr.kaiyo — JD2325 — position and weather

sailwx.info

Track history (hours):
 
Tides and Currents Weather Stations Pressure Air Temp Water Temp Dewpoint Dewpoint Depression Visibility Wind Speed Wind Dir Waves Ship Positions

Dr.kaiyo

Last reported at 2018-Apr-26 04:58 UTC. Time now 2018-Apr-26 17:27 UTC.
Position N 34°41' E 135°12'.

Length 31 m.

Type: Other ship. MMSI: 431301823.

Date/timePositionNaut miles runAvg speedWind from/ knotsBaromVisibWave heightAir tempDewpointWater temp
2018-Apr-26 04:58N 34°41' E 135°12'3 6.0
2018-Apr-26 04:30N 34°41' E 135°15'4 7.7
2018-Apr-26 04:00N 34°41' E 135°20'0 0.0
2018-Apr-26 03:30N 34°41' E 135°20'0 0.0
2018-Apr-26 03:00N 34°41' E 135°20'2 4.8
2018-Apr-26 02:30N 34°39' E 135°20'713.3
2018-Apr-26 02:00N 34°33' E 135°17'612.9
2018-Apr-26 01:30N 34°30' E 135°10'4 7.7
2018-Apr-26 01:00N 34°30' E 135°05'611.9
2018-Apr-26 00:30N 34°35' E 135°06'611.7
2018-Apr-26 00:01N 34°40' E 135°11'2 4.1
2018-Apr-25 23:30N 34°41' E 135°12'0 0.0
2018-Apr-25 23:00N 34°41' E 135°12'0 0.0
2018-Apr-25 04:57N 34°41' E 135°12'3 6.0
2018-Apr-25 04:30N 34°41' E 135°15'4 7.3
2018-Apr-25 04:00N 34°41' E 135°20'0 0.0
2018-Apr-25 03:30N 34°41' E 135°20'0 0.0
2018-Apr-25 03:00N 34°41' E 135°20'0 0.0
2018-Apr-25 02:30N 34°41' E 135°20'0 0.0
2018-Apr-25 02:00N 34°41' E 135°20'0 0.0
2018-Apr-25 01:30N 34°41' E 135°20'0 0.0
2018-Apr-25 01:00N 34°41' E 135°20'2 4.0
2018-Apr-25 00:30N 34°40' E 135°18'2 4.2
2018-Apr-25 00:00N 34°39' E 135°16'3 6.9
2018-Apr-24 23:30N 34°41' E 135°12'0 0.0
2018-Apr-24 05:38N 34°41' E 135°12'0 0.1
2018-Apr-24 05:31N 34°41' E 135°12'2 4.2
2018-Apr-24 05:00N 34°39' E 135°12'0 0.0
2018-Apr-24 04:30N 34°39' E 135°12'0 0.1
2018-Apr-24 04:01N 34°39' E 135°12'611.2
2018-Apr-24 03:30N 34°37' E 135°05'4 8.0
2018-Apr-24 03:00N 34°37' E 135°10'4 8.6
2018-Apr-24 02:30N 34°37' E 135°16'4 8.5
2018-Apr-24 02:00N 34°37' E 135°21'3 5.5
2018-Apr-24 01:30N 34°38' E 135°18'510.6
2018-Apr-24 01:00N 34°41' E 135°13'0 0.5
2018-Apr-24 00:30N 34°41' E 135°13'0 0.0
2018-Apr-24 00:00N 34°41' E 135°13'0 0.0
2018-Apr-23 23:30N 34°41' E 135°13'1 1.4
2018-Apr-23 23:00N 34°41' E 135°12'0 0.0
2018-Apr-23 22:30N 34°41' E 135°12'0 0.0
2018-Apr-23 06:26N 34°41' E 135°12'1 1.3
2018-Apr-23 06:01N 34°41' E 135°13'4 7.1
2018-Apr-23 05:31N 34°38' E 135°10'4 8.1
2018-Apr-23 05:00N 34°36' E 135°06'5 9.2
2018-Apr-23 04:30N 34°32' E 135°03'3 6.7
2018-Apr-23 04:00N 34°29' E 135°01'2 3.2
2018-Apr-23 03:30N 34°28' E 135°02'4 7.9
2018-Apr-23 03:00N 34°29' E 135°07'4 9.0
2018-Apr-23 02:30N 34°32' E 135°10'510.9
2018-Apr-23 02:01N 34°29' E 135°16'510.6
2018-Apr-23 01:30N 34°32' E 135°21'5 9.1
2018-Apr-23 01:01N 34°37' E 135°21'3 6.8
2018-Apr-23 00:31N 34°40' E 135°21'510.5
2018-Apr-23 00:00N 34°37' E 135°16'4 8.8
2018-Apr-22 23:30N 34°41' E 135°14'1 2.6
2018-Apr-22 23:00N 34°41' E 135°12'  
2018-Apr-20 05:30N 34°41' E 135°12'3 5.8
2018-Apr-20 05:00N 34°40' E 135°15'510.6
2018-Apr-20 04:31N 34°36' E 135°19'4 7.4
2018-Apr-20 04:01N 34°32' E 135°21'0 0.0
2018-Apr-20 03:30N 34°32' E 135°21'0 0.1
2018-Apr-20 03:00N 34°32' E 135°21'1 2.3
2018-Apr-20 02:31N 34°32' E 135°20'612.1
2018-Apr-20 02:00N 34°26' E 135°17'5 9.6
2018-Apr-20 01:31N 34°24' E 135°12'713.5
2018-Apr-20 01:00N 34°30' E 135°09'5 9.0
2018-Apr-20 00:30N 34°34' E 135°07'612.2
2018-Apr-20 00:00N 34°39' E 135°11'2 4.8
2018-Apr-19 23:30N 34°41' E 135°12'0 0.0
2018-Apr-19 23:01N 34°41' E 135°12'0 0.0
2018-Apr-19 06:14N 34°41' E 135°12'0 0.0
2018-Apr-19 04:37N 34°41' E 135°12'0 0.0
2018-Apr-19 04:30N 34°41' E 135°12'3 6.8
2018-Apr-19 04:00N 34°39' E 135°16'510.3
2018-Apr-19 03:30N 34°34' E 135°14'611.8
2018-Apr-19 03:00N 34°31' E 135°09'1 2.9
2018-Apr-19 02:30N 34°30' E 135°07'1 2.4
2018-Apr-19 02:00N 34°30' E 135°09'3 6.1
2018-Apr-19 01:30N 34°31' E 135°05'2 3.4
2018-Apr-19 01:00N 34°33' E 135°04'611.5
2018-Apr-19 00:31N 34°37' E 135°09'3 6.3
2018-Apr-19 00:00N 34°39' E 135°11'2 4.3
2018-Apr-18 23:30N 34°41' E 135°12'0 0.0
2018-Apr-18 23:00N 34°41' E 135°12'0 0.0
2018-Apr-18 06:43N 34°41' E 135°12'0 1.5
2018-Apr-18 06:30N 34°42' E 135°13'5 9.3
2018-Apr-18 06:01N 34°38' E 135°10'4 8.3
2018-Apr-18 05:30N 34°34' E 135°12'3 5.5
2018-Apr-18 05:01N 34°31' E 135°11'2 3.3
2018-Apr-18 04:30N 34°31' E 135°13'5 9.2
2018-Apr-18 04:00N 34°30' E 135°19'0 0.0
2018-Apr-18 03:30N 34°30' E 135°19'0 0.0
2018-Apr-18 03:00N 34°30' E 135°19'4 8.1
2018-Apr-18 02:30N 34°30' E 135°14'4 7.2
2018-Apr-18 02:00N 34°32' E 135°10'713.6
2018-Apr-18 01:31N 34°37' E 135°15'4 8.2
2018-Apr-18 01:00N 34°41' E 135°12'0 0.2
2018-Apr-18 00:30N 34°41' E 135°13'0 0.0
2018-Apr-18 00:00N 34°41' E 135°13'0 0.0
2018-Apr-17 23:31N 34°41' E 135°13'1 1.4
2018-Apr-17 23:01N 34°41' E 135°12'0 0.0
2018-Apr-16 07:29N 34°41' E 135°12'2 3.3
2018-Apr-16 07:00N 34°40' E 135°12'4 7.6
2018-Apr-16 06:31N 34°37' E 135°09'4 7.5
2018-Apr-16 06:00N 34°37' E 135°05'5 9.4
2018-Apr-16 05:31N 34°32' E 135°02'5 9.9
2018-Apr-16 05:00N 34°28' E 134°60'  
Track history (hours):
 
Tides and Currents Weather Stations Pressure Air Temp Water Temp Dewpoint Dewpoint Depression Visibility Wind Speed Wind Dir Waves Ship Positions

Dr.kaiyo

Last reported at 2018-Apr-26 04:58 UTC. Time now 2018-Apr-26 17:27 UTC.
Position N 34°41' E 135°12'.

Length 31 m.

Type: Other ship. MMSI: 431301823.

Date/timePositionNaut miles runAvg speedWind from/ knotsBaromVisibWave heightAir tempDewpointWater temp
2018-Apr-26 04:58N 34°41' E 135°12'3 6.0
2018-Apr-26 04:30N 34°41' E 135°15'4 7.7
2018-Apr-26 04:00N 34°41' E 135°20'0 0.0
2018-Apr-26 03:30N 34°41' E 135°20'0 0.0
2018-Apr-26 03:00N 34°41' E 135°20'2 4.8
2018-Apr-26 02:30N 34°39' E 135°20'713.3
2018-Apr-26 02:00N 34°33' E 135°17'612.9
2018-Apr-26 01:30N 34°30' E 135°10'4 7.7
2018-Apr-26 01:00N 34°30' E 135°05'611.9
2018-Apr-26 00:30N 34°35' E 135°06'611.7
2018-Apr-26 00:01N 34°40' E 135°11'2 4.1
2018-Apr-25 23:30N 34°41' E 135°12'0 0.0
2018-Apr-25 23:00N 34°41' E 135°12'0 0.0
2018-Apr-25 04:57N 34°41' E 135°12'3 6.0
2018-Apr-25 04:30N 34°41' E 135°15'4 7.3
2018-Apr-25 04:00N 34°41' E 135°20'0 0.0
2018-Apr-25 03:30N 34°41' E 135°20'0 0.0
2018-Apr-25 03:00N 34°41' E 135°20'0 0.0
2018-Apr-25 02:30N 34°41' E 135°20'0 0.0
2018-Apr-25 02:00N 34°41' E 135°20'0 0.0
2018-Apr-25 01:30N 34°41' E 135°20'0 0.0
2018-Apr-25 01:00N 34°41' E 135°20'2 4.0
2018-Apr-25 00:30N 34°40' E 135°18'2 4.2
2018-Apr-25 00:00N 34°39' E 135°16'3 6.9
2018-Apr-24 23:30N 34°41' E 135°12'0 0.0
2018-Apr-24 05:38N 34°41' E 135°12'0 0.1
2018-Apr-24 05:31N 34°41' E 135°12'2 4.2
2018-Apr-24 05:00N 34°39' E 135°12'0 0.0
2018-Apr-24 04:30N 34°39' E 135°12'0 0.1
2018-Apr-24 04:01N 34°39' E 135°12'611.2
2018-Apr-24 03:30N 34°37' E 135°05'4 8.0
2018-Apr-24 03:00N 34°37' E 135°10'4 8.6
2018-Apr-24 02:30N 34°37' E 135°16'4 8.5
2018-Apr-24 02:00N 34°37' E 135°21'3 5.5
2018-Apr-24 01:30N 34°38' E 135°18'510.6
2018-Apr-24 01:00N 34°41' E 135°13'0 0.5
2018-Apr-24 00:30N 34°41' E 135°13'0 0.0
2018-Apr-24 00:00N 34°41' E 135°13'0 0.0
2018-Apr-23 23:30N 34°41' E 135°13'1 1.4
2018-Apr-23 23:00N 34°41' E 135°12'0 0.0
2018-Apr-23 22:30N 34°41' E 135°12'0 0.0
2018-Apr-23 06:26N 34°41' E 135°12'1 1.3
2018-Apr-23 06:01N 34°41' E 135°13'4 7.1
2018-Apr-23 05:31N 34°38' E 135°10'4 8.1
2018-Apr-23 05:00N 34°36' E 135°06'5 9.2
2018-Apr-23 04:30N 34°32' E 135°03'3 6.7
2018-Apr-23 04:00N 34°29' E 135°01'2 3.2
2018-Apr-23 03:30N 34°28' E 135°02'4 7.9
2018-Apr-23 03:00N 34°29' E 135°07'4 9.0
2018-Apr-23 02:30N 34°32' E 135°10'510.9
2018-Apr-23 02:01N 34°29' E 135°16'510.6
2018-Apr-23 01:30N 34°32' E 135°21'5 9.1
2018-Apr-23 01:01N 34°37' E 135°21'3 6.8
2018-Apr-23 00:31N 34°40' E 135°21'510.5
2018-Apr-23 00:00N 34°37' E 135°16'4 8.8
2018-Apr-22 23:30N 34°41' E 135°14'1 2.6
2018-Apr-22 23:00N 34°41' E 135°12'  
2018-Apr-20 05:30N 34°41' E 135°12'3 5.8
2018-Apr-20 05:00N 34°40' E 135°15'510.6
2018-Apr-20 04:31N 34°36' E 135°19'4 7.4
2018-Apr-20 04:01N 34°32' E 135°21'0 0.0
2018-Apr-20 03:30N 34°32' E 135°21'0 0.1
2018-Apr-20 03:00N 34°32' E 135°21'1 2.3
2018-Apr-20 02:31N 34°32' E 135°20'612.1
2018-Apr-20 02:00N 34°26' E 135°17'5 9.6
2018-Apr-20 01:31N 34°24' E 135°12'713.5
2018-Apr-20 01:00N 34°30' E 135°09'5 9.0
2018-Apr-20 00:30N 34°34' E 135°07'612.2
2018-Apr-20 00:00N 34°39' E 135°11'2 4.8
2018-Apr-19 23:30N 34°41' E 135°12'0 0.0
2018-Apr-19 23:01N 34°41' E 135°12'0 0.0
2018-Apr-19 06:14N 34°41' E 135°12'0 0.0
2018-Apr-19 04:37N 34°41' E 135°12'0 0.0
2018-Apr-19 04:30N 34°41' E 135°12'3 6.8
2018-Apr-19 04:00N 34°39' E 135°16'510.3
2018-Apr-19 03:30N 34°34' E 135°14'611.8
2018-Apr-19 03:00N 34°31' E 135°09'1 2.9
2018-Apr-19 02:30N 34°30' E 135°07'1 2.4
2018-Apr-19 02:00N 34°30' E 135°09'3 6.1
2018-Apr-19 01:30N 34°31' E 135°05'2 3.4
2018-Apr-19 01:00N 34°33' E 135°04'611.5
2018-Apr-19 00:31N 34°37' E 135°09'3 6.3
2018-Apr-19 00:00N 34°39' E 135°11'2 4.3
2018-Apr-18 23:30N 34°41' E 135°12'0 0.0
2018-Apr-18 23:00N 34°41' E 135°12'0 0.0
2018-Apr-18 06:43N 34°41' E 135°12'0 1.5
2018-Apr-18 06:30N 34°42' E 135°13'5 9.3
2018-Apr-18 06:01N 34°38' E 135°10'4 8.3
2018-Apr-18 05:30N 34°34' E 135°12'3 5.5
2018-Apr-18 05:01N 34°31' E 135°11'2 3.3
2018-Apr-18 04:30N 34°31' E 135°13'5 9.2
2018-Apr-18 04:00N 34°30' E 135°19'0 0.0
2018-Apr-18 03:30N 34°30' E 135°19'0 0.0
2018-Apr-18 03:00N 34°30' E 135°19'4 8.1
2018-Apr-18 02:30N 34°30' E 135°14'4 7.2
2018-Apr-18 02:00N 34°32' E 135°10'713.6
2018-Apr-18 01:31N 34°37' E 135°15'4 8.2
2018-Apr-18 01:00N 34°41' E 135°12'0 0.2
2018-Apr-18 00:30N 34°41' E 135°13'0 0.0
2018-Apr-18 00:00N 34°41' E 135°13'0 0.0
2018-Apr-17 23:31N 34°41' E 135°13'1 1.4
2018-Apr-17 23:01N 34°41' E 135°12'0 0.0
2018-Apr-16 07:29N 34°41' E 135°12'2 3.3
2018-Apr-16 07:00N 34°40' E 135°12'4 7.6
2018-Apr-16 06:31N 34°37' E 135°09'4 7.5
2018-Apr-16 06:00N 34°37' E 135°05'5 9.4
2018-Apr-16 05:31N 34°32' E 135°02'5 9.9
2018-Apr-16 05:00N 34°28' E 134°60'  

Dump ship's entire track history